sensor_id;sensor_type;location;lat;lon;timestamp;pressure;altitude;pressure_sealevel;temperature;humidity
7586;BME280;12459;42.646;23.292;2024-01-15T00:05:03;92961.50;;;-0.42;71.81
7586;BME280;12459;42.646;23.292;2024-01-15T00:20:06;92982.91;;;-0.21;72.86
7586;BME280;12459;42.646;23.292;2024-01-15T00:35:08;92816.38;;;-1.09;71.49
7586;BME280;12459;42.646;23.292;2024-01-15T00:50:10;92806.91;;;-1.14;71.11
7586;BME280;12459;42.646;23.292;2024-01-15T01:05:12;92842.19;;;-1.15;72.40
7586;BME280;12459;42.646;23.292;2024-01-15T01:20:14;93091.91;;;0.82;73.36
7586;BME280;12459;42.646;23.292;2024-01-15T01:35:19;92912.94;;;-1.06;74.13
7586;BME280;12459;42.646;23.292;2024-01-15T01:50:21;93114.78;;;0.32;74.64
7586;BME280;12459;42.646;23.292;2024-01-15T02:05:24;92845.28;;;-1.67;73.59
7586;BME280;12459;42.646;23.292;2024-01-15T02:20:26;92944.91;;;-0.01;73.97
7586;BME280;12459;42.646;23.292;2024-01-15T02:35:28;92671.28;;;-1.18;71.66
7586;BME280;12459;42.646;23.292;2024-01-15T02:50:29;92302.56;;;-3.60;70.03
7586;BME280;12459;42.646;23.292;2024-01-15T03:05:31;92599.56;;;-1.68;70.37
7586;BME280;12459;42.646;23.292;2024-01-15T03:20:33;92802.66;;;0.52;69.53
7586;BME280;12459;42.646;23.292;2024-01-15T03:35:35;92972.78;;;2.07;69.16
7586;BME280;12459;42.646;23.292;2024-01-15T03:50:36;92767.63;;;-0.35;71.73
7586;BME280;12459;42.646;23.292;2024-01-15T04:05:38;92857.69;;;-0.22;72.95
7586;BME280;12459;42.646;23.292;2024-01-15T04:20:40;92997.25;;;1.30;72.49
7586;BME280;12459;42.646;23.292;2024-01-15T04:35:42;92772.59;;;-0.29;73.54
7586;BME280;12459;42.646;23.292;2024-01-15T04:50:44;92860.00;;;0.06;73.99
7586;BME280;12459;42.646;23.292;2024-01-15T05:05:45;92851.66;;;0.01;74.24
7586;BME280;12459;42.646;23.292;2024-01-15T05:20:47;92749.59;;;0.20;72.77
7586;BME280;12459;42.646;23.292;2024-01-15T05:35:49;92705.56;;;-1.11;75.01
7586;BME280;12459;42.646;23.292;2024-01-15T05:50:51;92344.72;;;-3.84;74.78
7586;BME280;12459;42.646;23.292;2024-01-15T06:05:53;92858.19;;;1.00;73.92
7586;BME280;12459;42.646;23.292;2024-01-15T06:20:55;92530.81;;;-1.51;74.68
7586;BME280;12459;42.646;23.292;2024-01-15T06:35:57;92856.44;;;1.48;72.29
7586;BME280;12459;42.646;23.292;2024-01-15T06:50:59;92807.50;;;0.17;75.24
7586;BME280;12459;42.646;23.292;2024-01-15T07:06:01;92869.75;;;1.22;73.56
7586;BME280;12459;42.646;23.292;2024-01-15T07:21:03;92502.28;;;-0.66;73.93
7586;BME280;12459;42.646;23.292;2024-01-15T07:36:05;92668.97;;;-0.48;73.50
7586;BME280;12459;42.646;23.292;2024-01-15T07:51:07;92699.66;;;1.09;73.26
7586;BME280;12459;42.646;23.292;2024-01-15T08:06:08;92563.25;;;0.54;69.78
7586;BME280;12459;42.646;23.292;2024-01-15T08:21:11;92859.81;;;2.41;71.32
7586;BME280;12459;42.646;23.292;2024-01-15T08:36:14;92668.19;;;1.34;69.71
7586;BME280;12459;42.646;23.292;2024-01-15T08:51:16;92642.34;;;1.60;72.00
7586;BME280;12459;42.646;23.292;2024-01-15T09:06:17;92436.03;;;-0.38;71.78
7586;BME280;12459;42.646;23.292;2024-01-15T09:21:20;92669.50;;;2.51;72.78
7586;BME280;12459;42.646;23.292;2024-01-15T09:36:22;92108.31;;;-0.36;68.16
7586;BME280;12459;42.646;23.292;2024-01-15T09:51:31;92724.16;;;4.68;63.94
7586;BME280;12459;42.646;23.292;2024-01-15T10:06:33;92401.28;;;2.77;63.68
7586;BME280;12459;42.646;23.292;2024-01-15T10:21:36;92572.81;;;4.30;63.93
7586;BME280;12459;42.646;23.292;2024-01-15T10:36:39;92546.53;;;4.50;64.69
7586;BME280;12459;42.646;23.292;2024-01-15T10:51:41;92456.13;;;4.30;62.29
7586;BME280;12459;42.646;23.292;2024-01-15T11:06:50;92612.44;;;5.93;62.23
7586;BME280;12459;42.646;23.292;2024-01-15T11:21:52;92328.81;;;4.37;61.11
7586;BME280;12459;42.646;23.292;2024-01-15T11:51:57;92380.56;;;4.87;61.76
7586;BME280;12459;42.646;23.292;2024-01-15T12:07:00;92341.75;;;4.66;62.74
7586;BME280;12459;42.646;23.292;2024-01-15T12:22:01;92301.25;;;4.62;63.26
7586;BME280;12459;42.646;23.292;2024-01-15T12:37:03;92366.22;;;5.14;61.35
7586;BME280;12459;42.646;23.292;2024-01-15T12:52:09;92375.28;;;5.17;64.47
7586;BME280;12459;42.646;23.292;2024-01-15T13:07:11;92186.97;;;4.49;62.01
7586;BME280;12459;42.646;23.292;2024-01-15T13:22:13;92467.25;;;6.29;63.19
7586;BME280;12459;42.646;23.292;2024-01-15T13:37:15;92145.97;;;3.93;66.21
7586;BME280;12459;42.646;23.292;2024-01-15T13:52:17;92204.84;;;4.11;67.48
7586;BME280;12459;42.646;23.292;2024-01-15T14:07:19;92407.09;;;5.55;69.90
7586;BME280;12459;42.646;23.292;2024-01-15T14:22:21;92270.31;;;4.52;68.08
7586;BME280;12459;42.646;23.292;2024-01-15T14:37:23;92447.97;;;5.64;72.33
7586;BME280;12459;42.646;23.292;2024-01-15T14:52:25;92127.47;;;3.55;71.29
7586;BME280;12459;42.646;23.292;2024-01-15T15:07:26;92368.91;;;4.43;74.14
7586;BME280;12459;42.646;23.292;2024-01-15T15:22:28;92126.34;;;3.11;71.66
7586;BME280;12459;42.646;23.292;2024-01-15T15:37:31;92369.34;;;4.34;72.91
7586;BME280;12459;42.646;23.292;2024-01-15T15:52:32;92162.47;;;2.84;73.69
7586;BME280;12459;42.646;23.292;2024-01-15T16:07:35;92418.59;;;5.10;74.66
7586;BME280;12459;42.646;23.292;2024-01-15T16:22:37;92357.47;;;5.18;74.08
7586;BME280;12459;42.646;23.292;2024-01-15T16:37:59;92206.66;;;2.87;76.15
7586;BME280;12459;42.646;23.292;2024-01-15T16:53:00;92406.91;;;5.04;74.99
7586;BME280;12459;42.646;23.292;2024-01-15T17:08:02;92370.31;;;4.10;76.51
7586;BME280;12459;42.646;23.292;2024-01-15T17:23:04;92180.22;;;2.83;79.62
7586;BME280;12459;42.646;23.292;2024-01-15T17:38:06;92014.72;;;1.82;77.59
7586;BME280;12459;42.646;23.292;2024-01-15T17:53:08;92297.63;;;3.63;77.52
7586;BME280;12459;42.646;23.292;2024-01-15T18:08:12;92152.84;;;3.08;79.39
7586;BME280;12459;42.646;23.292;2024-01-15T18:23:14;92110.38;;;3.26;80.32
7586;BME280;12459;42.646;23.292;2024-01-15T18:38:15;92113.97;;;3.01;81.99
7586;BME280;12459;42.646;23.292;2024-01-15T18:53:17;92151.66;;;3.57;83.14
7586;BME280;12459;42.646;23.292;2024-01-15T19:08:19;92084.91;;;2.94;89.65
7586;BME280;12459;42.646;23.292;2024-01-15T19:23:21;92364.53;;;4.97;94.00
7586;BME280;12459;42.646;23.292;2024-01-15T19:38:23;92196.81;;;3.80;98.52
7586;BME280;12459;42.646;23.292;2024-01-15T19:53:25;92337.56;;;4.68;100.00
7586;BME280;12459;42.646;23.292;2024-01-15T20:08:27;92036.19;;;2.50;100.00
7586;BME280;12459;42.646;23.292;2024-01-15T20:23:32;92380.56;;;4.53;100.00
7586;BME280;12459;42.646;23.292;2024-01-15T20:38:37;92059.56;;;2.52;100.00
7586;BME280;12459;42.646;23.292;2024-01-15T20:53:40;92241.66;;;3.61;100.00
7586;BME280;12459;42.646;23.292;2024-01-15T21:08:45;92157.75;;;3.54;100.00
7586;BME280;12459;42.646;23.292;2024-01-15T21:23:47;92165.25;;;3.59;100.00
7586;BME280;12459;42.646;23.292;2024-01-15T21:38:49;92155.09;;;3.54;100.00
7586;BME280;12459;42.646;23.292;2024-01-15T21:53:51;92241.22;;;4.07;98.75
7586;BME280;12459;42.646;23.292;2024-01-15T22:08:53;92154.06;;;3.44;100.00
7586;BME280;12459;42.646;23.292;2024-01-15T22:23:54;91917.13;;;2.20;96.77
7586;BME280;12459;42.646;23.292;2024-01-15T22:38:56;92101.72;;;3.22;99.30
7586;BME280;12459;42.646;23.292;2024-01-15T22:53:58;91889.94;;;1.19;96.60
7586;BME280;12459;42.646;23.292;2024-01-15T23:09:00;92124.41;;;3.19;95.20
7586;BME280;12459;42.646;23.292;2024-01-15T23:24:02;92243.00;;;3.79;97.26
7586;BME280;12459;42.646;23.292;2024-01-15T23:39:04;92229.91;;;4.03;95.68
7586;BME280;12459;42.646;23.292;2024-01-15T23:54:09;92188.88;;;4.18;93.99
